sensor_id;sensor_type;location;lat;lon;timestamp;temperature;humidity
17483;DHT22;8858;52.308;20.994;2022-12-05T00:00:33;2.20;99.90
17483;DHT22;8858;52.308;20.994;2022-12-05T00:03:03;2.10;99.90
17483;DHT22;8858;52.308;20.994;2022-12-05T00:05:31;2.10;99.90
17483;DHT22;8858;52.308;20.994;2022-12-05T00:08:00;2.10;99.90
17483;DHT22;8858;52.308;20.994;2022-12-05T00:10:30;2.10;99.90
17483;DHT22;8858;52.308;20.994;2022-12-05T00:13:00;2.10;99.90
17483;DHT22;8858;52.308;20.994;2022-12-05T00:15:29;2.10;99.90
17483;DHT22;8858;52.308;20.994;2022-12-05T00:17:58;2.20;99.90
17483;DHT22;8858;52.308;20.994;2022-12-05T00:20:27;2.20;99.90
17483;DHT22;8858;52.308;20.994;2022-12-05T00:22:57;2.10;99.90
17483;DHT22;8858;52.308;20.994;2022-12-05T00:25:25;2.20;99.90
17483;DHT22;8858;52.308;20.994;2022-12-05T00:27:54;2.20;99.90
17483;DHT22;8858;52.308;20.994;2022-12-05T00:30:22;2.20;99.90
17483;DHT22;8858;52.308;20.994;2022-12-05T00:32:50;2.20;99.90
17483;DHT22;8858;52.308;20.994;2022-12-05T00:35:22;2.20;99.90
17483;DHT22;8858;52.308;20.994;2022-12-05T00:37:51;2.10;99.90
17483;DHT22;8858;52.308;20.994;2022-12-05T00:40:19;2.10;99.90
17483;DHT22;8858;52.308;20.994;2022-12-05T00:42:48;2.10;99.90
17483;DHT22;8858;52.308;20.994;2022-12-05T00:45:20;2.10;99.90
17483;DHT22;8858;52.308;20.994;2022-12-05T00:47:53;2.10;99.90
17483;DHT22;8858;52.308;20.994;2022-12-05T00:50:21;2.10;99.90
17483;DHT22;8858;52.308;20.994;2022-12-05T00:52:49;2.10;99.90
17483;DHT22;8858;52.308;20.994;2022-12-05T00:55:18;2.10;99.90
17483;DHT22;8858;52.308;20.994;2022-12-05T00:57:47;2.20;99.90
17483;DHT22;8858;52.308;20.994;2022-12-05T01:00:20;2.20;99.90
17483;DHT22;8858;52.308;20.994;2022-12-05T01:02:48;2.20;99.90
17483;DHT22;8858;52.308;20.994;2022-12-05T01:05:16;2.20;99.90
17483;DHT22;8858;52.308;20.994;2022-12-05T01:07:44;2.20;99.90
17483;DHT22;8858;52.308;20.994;2022-12-05T01:10:16;2.20;99.90
17483;DHT22;8858;52.308;20.994;2022-12-05T01:12:47;2.20;99.90
17483;DHT22;8858;52.308;20.994;2022-12-05T01:15:17;2.10;99.90
17483;DHT22;8858;52.308;20.994;2022-12-05T01:17:47;2.10;99.90
17483;DHT22;8858;52.308;20.994;2022-12-05T01:20:15;2.10;99.90
17483;DHT22;8858;52.308;20.994;2022-12-05T01:22:44;2.00;99.90
17483;DHT22;8858;52.308;20.994;2022-12-05T01:25:14;2.00;99.90
17483;DHT22;8858;52.308;20.994;2022-12-05T01:27:43;2.00;99.90
17483;DHT22;8858;52.308;20.994;2022-12-05T01:30:12;2.00;99.90
17483;DHT22;8858;52.308;20.994;2022-12-05T01:32:40;2.10;99.90
17483;DHT22;8858;52.308;20.994;2022-12-05T01:35:12;2.10;99.90
17483;DHT22;8858;52.308;20.994;2022-12-05T01:37:46;2.10;99.90
17483;DHT22;8858;52.308;20.994;2022-12-05T01:40:16;2.10;99.90
17483;DHT22;8858;52.308;20.994;2022-12-05T01:42:45;2.00;99.90
17483;DHT22;8858;52.308;20.994;2022-12-05T01:45:15;2.00;99.90
17483;DHT22;8858;52.308;20.994;2022-12-05T01:47:44;1.90;99.90
17483;DHT22;8858;52.308;20.994;2022-12-05T01:50:15;1.90;99.90
17483;DHT22;8858;52.308;20.994;2022-12-05T01:52:47;1.90;99.90
17483;DHT22;8858;52.308;20.994;2022-12-05T01:55:19;1.90;99.90
17483;DHT22;8858;52.308;20.994;2022-12-05T01:57:48;1.90;99.90
17483;DHT22;8858;52.308;20.994;2022-12-05T02:00:19;2.00;99.90
17483;DHT22;8858;52.308;20.994;2022-12-05T02:02:51;2.00;99.90
17483;DHT22;8858;52.308;20.994;2022-12-05T02:05:24;2.00;99.90
17483;DHT22;8858;52.308;20.994;2022-12-05T02:07:56;1.90;99.90
17483;DHT22;8858;52.308;20.994;2022-12-05T02:10:27;1.90;99.90
17483;DHT22;8858;52.308;20.994;2022-12-05T02:13:00;1.90;99.90
17483;DHT22;8858;52.308;20.994;2022-12-05T02:15:39;1.80;99.90
17483;DHT22;8858;52.308;20.994;2022-12-05T02:18:23;1.80;99.90
17483;DHT22;8858;52.308;20.994;2022-12-05T02:21:13;1.80;99.90
17483;DHT22;8858;52.308;20.994;2022-12-05T02:24:06;1.80;99.90
17483;DHT22;8858;52.308;20.994;2022-12-05T02:26:55;1.80;99.90
17483;DHT22;8858;52.308;20.994;2022-12-05T02:29:52;1.80;99.90
17483;DHT22;8858;52.308;20.994;2022-12-05T02:32:33;1.80;99.90
17483;DHT22;8858;52.308;20.994;2022-12-05T02:35:11;1.70;99.90
17483;DHT22;8858;52.308;20.994;2022-12-05T02:37:51;1.70;99.90
17483;DHT22;8858;52.308;20.994;2022-12-05T02:40:24;1.70;99.90
17483;DHT22;8858;52.308;20.994;2022-12-05T02:42:58;1.70;99.90
17483;DHT22;8858;52.308;20.994;2022-12-05T02:45:30;1.70;99.90
17483;DHT22;8858;52.308;20.994;2022-12-05T02:47:59;1.70;99.90
17483;DHT22;8858;52.308;20.994;2022-12-05T02:50:32;1.70;99.90
17483;DHT22;8858;52.308;20.994;2022-12-05T02:53:04;1.80;99.90
17483;DHT22;8858;52.308;20.994;2022-12-05T02:55:34;1.80;99.90
17483;DHT22;8858;52.308;20.994;2022-12-05T02:58:11;1.80;99.90
17483;DHT22;8858;52.308;20.994;2022-12-05T03:00:45;1.80;99.90
17483;DHT22;8858;52.308;20.994;2022-12-05T03:03:17;1.80;99.90
17483;DHT22;8858;52.308;20.994;2022-12-05T03:05:50;1.80;99.90
17483;DHT22;8858;52.308;20.994;2022-12-05T03:08:23;1.80;99.90
17483;DHT22;8858;52.308;20.994;2022-12-05T03:10:53;1.90;99.90
17483;DHT22;8858;52.308;20.994;2022-12-05T03:13:30;1.90;99.90
17483;DHT22;8858;52.308;20.994;2022-12-05T03:16:04;1.90;99.90
17483;DHT22;8858;52.308;20.994;2022-12-05T03:18:37;1.90;99.90
17483;DHT22;8858;52.308;20.994;2022-12-05T03:21:14;1.80;99.90
17483;DHT22;8858;52.308;20.994;2022-12-05T03:23:49;1.80;99.90
17483;DHT22;8858;52.308;20.994;2022-12-05T03:26:31;1.80;99.90
17483;DHT22;8858;52.308;20.994;2022-12-05T03:29:18;1.70;99.90
17483;DHT22;8858;52.308;20.994;2022-12-05T03:32:04;1.70;99.90
17483;DHT22;8858;52.308;20.994;2022-12-05T03:34:50;1.80;99.90
17483;DHT22;8858;52.308;20.994;2022-12-05T03:37:25;1.80;99.90
17483;DHT22;8858;52.308;20.994;2022-12-05T03:40:03;1.70;99.90
17483;DHT22;8858;52.308;20.994;2022-12-05T03:42:34;1.70;99.90
17483;DHT22;8858;52.308;20.994;2022-12-05T03:45:09;1.80;99.90
17483;DHT22;8858;52.308;20.994;2022-12-05T03:47:46;1.80;99.90
17483;DHT22;8858;52.308;20.994;2022-12-05T03:50:20;1.80;99.90
17483;DHT22;8858;52.308;20.994;2022-12-05T03:52:54;1.70;99.90
17483;DHT22;8858;52.308;20.994;2022-12-05T03:55:48;1.70;99.90
17483;DHT22;8858;52.308;20.994;2022-12-05T03:58:21;1.70;99.90
17483;DHT22;8858;52.308;20.994;2022-12-05T04:00:53;1.70;99.90
17483;DHT22;8858;52.308;20.994;2022-12-05T04:03:29;1.70;99.90
17483;DHT22;8858;52.308;20.994;2022-12-05T04:06:12;1.70;99.90
17483;DHT22;8858;52.308;20.994;2022-12-05T04:08:48;1.70;99.90
17483;DHT22;8858;52.308;20.994;2022-12-05T04:11:24;1.70;99.90
17483;DHT22;8858;52.308;20.994;2022-12-05T04:13:59;1.70;99.90
17483;DHT22;8858;52.308;20.994;2022-12-05T04:16:36;1.70;99.90
17483;DHT22;8858;52.308;20.994;2022-12-05T04:19:30;1.70;99.90
17483;DHT22;8858;52.308;20.994;2022-12-05T04:22:23;1.70;99.90
17483;DHT22;8858;52.308;20.994;2022-12-05T04:24:56;1.70;99.90
17483;DHT22;8858;52.308;20.994;2022-12-05T04:27:49;1.70;99.90
17483;DHT22;8858;52.308;20.994;2022-12-05T04:30:20;1.70;99.90
17483;DHT22;8858;52.308;20.994;2022-12-05T04:32:52;1.70;99.90
17483;DHT22;8858;52.308;20.994;2022-12-05T04:35:26;1.80;99.90
17483;DHT22;8858;52.308;20.994;2022-12-05T04:38:01;1.80;99.90
17483;DHT22;8858;52.308;20.994;2022-12-05T04:40:33;1.80;99.90
17483;DHT22;8858;52.308;20.994;2022-12-05T04:43:05;1.80;99.90
17483;DHT22;8858;52.308;20.994;2022-12-05T04:45:36;1.80;99.90
17483;DHT22;8858;52.308;20.994;2022-12-05T04:48:10;1.80;99.90
17483;DHT22;8858;52.308;20.994;2022-12-05T04:50:41;1.80;99.90
17483;DHT22;8858;52.308;20.994;2022-12-05T04:53:13;1.80;99.90
17483;DHT22;8858;52.308;20.994;2022-12-05T04:55:46;1.80;99.90
17483;DHT22;8858;52.308;20.994;2022-12-05T04:58:21;1.80;99.90
17483;DHT22;8858;52.308;20.994;2022-12-05T05:00:58;1.70;99.90
17483;DHT22;8858;52.308;20.994;2022-12-05T05:03:34;1.70;99.90
17483;DHT22;8858;52.308;20.994;2022-12-05T05:06:05;1.80;99.90
17483;DHT22;8858;52.308;20.994;2022-12-05T05:08:33;1.70;99.90
17483;DHT22;8858;52.308;20.994;2022-12-05T05:11:08;1.80;99.90
17483;DHT22;8858;52.308;20.994;2022-12-05T05:13:40;1.80;99.90
17483;DHT22;8858;52.308;20.994;2022-12-05T05:16:13;1.80;99.90
17483;DHT22;8858;52.308;20.994;2022-12-05T05:18:44;1.80;99.90
17483;DHT22;8858;52.308;20.994;2022-12-05T05:21:19;1.80;99.90
17483;DHT22;8858;52.308;20.994;2022-12-05T05:23:48;1.80;99.90
17483;DHT22;8858;52.308;20.994;2022-12-05T05:26:18;1.80;99.90
17483;DHT22;8858;52.308;20.994;2022-12-05T05:28:47;1.80;99.90
17483;DHT22;8858;52.308;20.994;2022-12-05T05:31:19;1.80;99.90
17483;DHT22;8858;52.308;20.994;2022-12-05T05:33:52;1.70;99.90
17483;DHT22;8858;52.308;20.994;2022-12-05T05:36:26;1.80;99.90
17483;DHT22;8858;52.308;20.994;2022-12-05T05:39:00;1.70;99.90
17483;DHT22;8858;52.308;20.994;2022-12-05T05:41:34;1.70;99.90
17483;DHT22;8858;52.308;20.994;2022-12-05T05:44:03;1.80;99.90
17483;DHT22;8858;52.308;20.994;2022-12-05T05:46:33;1.70;99.90
17483;DHT22;8858;52.308;20.994;2022-12-05T05:49:02;1.70;99.90
17483;DHT22;8858;52.308;20.994;2022-12-05T05:51:32;1.70;99.90
17483;DHT22;8858;52.308;20.994;2022-12-05T05:54:02;1.70;99.90
17483;DHT22;8858;52.308;20.994;2022-12-05T05:56:30;1.70;99.90
17483;DHT22;8858;52.308;20.994;2022-12-05T05:59:00;1.70;99.90
17483;DHT22;8858;52.308;20.994;2022-12-05T06:01:29;1.70;99.90
17483;DHT22;8858;52.308;20.994;2022-12-05T06:03:57;1.70;99.90
17483;DHT22;8858;52.308;20.994;2022-12-05T06:06:29;1.70;99.90
17483;DHT22;8858;52.308;20.994;2022-12-05T06:08:58;1.70;99.90
17483;DHT22;8858;52.308;20.994;2022-12-05T06:11:27;1.70;99.90
17483;DHT22;8858;52.308;20.994;2022-12-05T06:13:56;1.70;99.90
17483;DHT22;8858;52.308;20.994;2022-12-05T06:16:28;1.70;99.90
17483;DHT22;8858;52.308;20.994;2022-12-05T06:18:58;1.80;99.90
17483;DHT22;8858;52.308;20.994;2022-12-05T06:21:27;1.80;99.90
17483;DHT22;8858;52.308;20.994;2022-12-05T06:23:55;1.80;99.90
17483;DHT22;8858;52.308;20.994;2022-12-05T06:26:27;1.80;99.90
17483;DHT22;8858;52.308;20.994;2022-12-05T06:28:55;1.80;99.90
17483;DHT22;8858;52.308;20.994;2022-12-05T06:31:27;1.70;99.90
17483;DHT22;8858;52.308;20.994;2022-12-05T06:34:00;1.70;99.90
17483;DHT22;8858;52.308;20.994;2022-12-05T06:36:29;1.70;99.90
17483;DHT22;8858;52.308;20.994;2022-12-05T06:38:58;1.80;99.90
17483;DHT22;8858;52.308;20.994;2022-12-05T06:41:27;1.80;99.90
17483;DHT22;8858;52.308;20.994;2022-12-05T06:43:56;1.80;99.90
17483;DHT22;8858;52.308;20.994;2022-12-05T06:46:28;1.80;99.90
17483;DHT22;8858;52.308;20.994;2022-12-05T06:48:57;1.80;99.90
17483;DHT22;8858;52.308;20.994;2022-12-05T06:51:25;1.80;99.90
17483;DHT22;8858;52.308;20.994;2022-12-05T06:53:54;1.80;99.90
17483;DHT22;8858;52.308;20.994;2022-12-05T06:56:23;1.90;99.90
17483;DHT22;8858;52.308;20.994;2022-12-05T06:58:56;1.90;99.90
17483;DHT22;8858;52.308;20.994;2022-12-05T07:01:24;1.80;99.90
17483;DHT22;8858;52.308;20.994;2022-12-05T07:04:13;1.80;99.90
17483;DHT22;8858;52.308;20.994;2022-12-05T07:06:43;1.80;99.90
17483;DHT22;8858;52.308;20.994;2022-12-05T07:09:19;1.80;99.90
17483;DHT22;8858;52.308;20.994;2022-12-05T07:11:47;1.80;99.90
17483;DHT22;8858;52.308;20.994;2022-12-05T07:14:20;1.80;99.90
17483;DHT22;8858;52.308;20.994;2022-12-05T07:17:09;1.90;99.90
17483;DHT22;8858;52.308;20.994;2022-12-05T07:19:37;1.90;99.90
17483;DHT22;8858;52.308;20.994;2022-12-05T07:22:05;1.90;99.90
17483;DHT22;8858;52.308;20.994;2022-12-05T07:24:42;1.90;99.90
17483;DHT22;8858;52.308;20.994;2022-12-05T07:27:10;1.90;99.90
17483;DHT22;8858;52.308;20.994;2022-12-05T07:29:44;1.90;99.90
17483;DHT22;8858;52.308;20.994;2022-12-05T07:32:12;2.00;99.90
17483;DHT22;8858;52.308;20.994;2022-12-05T07:34:40;2.00;99.90
17483;DHT22;8858;52.308;20.994;2022-12-05T07:37:08;2.00;99.90
17483;DHT22;8858;52.308;20.994;2022-12-05T07:39:38;2.00;99.90
17483;DHT22;8858;52.308;20.994;2022-12-05T07:42:06;2.00;99.90
17483;DHT22;8858;52.308;20.994;2022-12-05T07:44:34;2.00;99.90
17483;DHT22;8858;52.308;20.994;2022-12-05T07:47:04;2.00;99.90
17483;DHT22;8858;52.308;20.994;2022-12-05T07:49:32;2.00;99.90
17483;DHT22;8858;52.308;20.994;2022-12-05T07:52:00;2.00;99.90
17483;DHT22;8858;52.308;20.994;2022-12-05T07:54:28;2.00;99.90
17483;DHT22;8858;52.308;20.994;2022-12-05T07:56:57;2.00;99.90
17483;DHT22;8858;52.308;20.994;2022-12-05T07:59:27;2.00;99.90
17483;DHT22;8858;52.308;20.994;2022-12-05T08:01:55;2.00;99.90
17483;DHT22;8858;52.308;20.994;2022-12-05T08:04:24;2.00;99.90
17483;DHT22;8858;52.308;20.994;2022-12-05T08:06:53;2.00;99.90
17483;DHT22;8858;52.308;20.994;2022-12-05T08:09:23;2.00;99.90
17483;DHT22;8858;52.308;20.994;2022-12-05T08:11:53;2.00;99.90
17483;DHT22;8858;52.308;20.994;2022-12-05T08:14:22;2.10;99.90
17483;DHT22;8858;52.308;20.994;2022-12-05T08:16:51;2.10;99.90
17483;DHT22;8858;52.308;20.994;2022-12-05T08:19:20;2.10;99.90
17483;DHT22;8858;52.308;20.994;2022-12-05T08:21:53;2.10;99.90
17483;DHT22;8858;52.308;20.994;2022-12-05T08:24:22;2.10;99.90
17483;DHT22;8858;52.308;20.994;2022-12-05T08:26:51;2.10;99.90
17483;DHT22;8858;52.308;20.994;2022-12-05T08:29:21;2.20;99.90
17483;DHT22;8858;52.308;20.994;2022-12-05T08:31:50;2.20;99.90
17483;DHT22;8858;52.308;20.994;2022-12-05T08:34:19;2.20;99.90
17483;DHT22;8858;52.308;20.994;2022-12-05T08:36:51;2.20;99.90
17483;DHT22;8858;52.308;20.994;2022-12-05T08:39:22;2.20;99.90
17483;DHT22;8858;52.308;20.994;2022-12-05T08:41:52;2.20;99.90
17483;DHT22;8858;52.308;20.994;2022-12-05T08:44:20;2.30;99.90
17483;DHT22;8858;52.308;20.994;2022-12-05T08:46:49;2.20;99.90
17483;DHT22;8858;52.308;20.994;2022-12-05T08:49:17;2.20;99.90
17483;DHT22;8858;52.308;20.994;2022-12-05T08:51:46;2.20;99.90
17483;DHT22;8858;52.308;20.994;2022-12-05T08:54:15;2.20;99.90
17483;DHT22;8858;52.308;20.994;2022-12-05T08:56:45;2.20;99.90
17483;DHT22;8858;52.308;20.994;2022-12-05T08:59:16;2.20;99.90
17483;DHT22;8858;52.308;20.994;2022-12-05T09:01:49;2.20;99.90
17483;DHT22;8858;52.308;20.994;2022-12-05T09:04:18;2.20;99.90
17483;DHT22;8858;52.308;20.994;2022-12-05T09:06:47;2.20;99.90
17483;DHT22;8858;52.308;20.994;2022-12-05T09:09:18;2.20;99.90
17483;DHT22;8858;52.308;20.994;2022-12-05T09:11:48;2.20;99.90
17483;DHT22;8858;52.308;20.994;2022-12-05T09:14:17;2.20;99.90
17483;DHT22;8858;52.308;20.994;2022-12-05T09:16:47;2.30;99.90
17483;DHT22;8858;52.308;20.994;2022-12-05T09:19:18;2.30;99.90
17483;DHT22;8858;52.308;20.994;2022-12-05T09:21:49;2.20;99.90
17483;DHT22;8858;52.308;20.994;2022-12-05T09:24:19;2.20;99.90
17483;DHT22;8858;52.308;20.994;2022-12-05T09:26:47;2.20;99.90
17483;DHT22;8858;52.308;20.994;2022-12-05T09:29:19;2.20;99.90
17483;DHT22;8858;52.308;20.994;2022-12-05T09:31:47;2.20;99.90
17483;DHT22;8858;52.308;20.994;2022-12-05T09:34:18;2.30;99.90
17483;DHT22;8858;52.308;20.994;2022-12-05T09:36:47;2.30;99.90
17483;DHT22;8858;52.308;20.994;2022-12-05T09:39:37;2.30;99.90
17483;DHT22;8858;52.308;20.994;2022-12-05T09:42:24;2.30;99.90
17483;DHT22;8858;52.308;20.994;2022-12-05T09:45:20;2.40;99.90
17483;DHT22;8858;52.308;20.994;2022-12-05T09:47:53;2.30;99.90
17483;DHT22;8858;52.308;20.994;2022-12-05T09:50:25;2.30;99.90
17483;DHT22;8858;52.308;20.994;2022-12-05T09:53:04;2.30;99.90
17483;DHT22;8858;52.308;20.994;2022-12-05T09:55:45;2.40;99.90
17483;DHT22;8858;52.308;20.994;2022-12-05T09:58:24;2.40;99.90
17483;DHT22;8858;52.308;20.994;2022-12-05T10:01:01;2.40;99.90
17483;DHT22;8858;52.308;20.994;2022-12-05T10:03:37;2.40;99.90
17483;DHT22;8858;52.308;20.994;2022-12-05T10:06:12;2.50;99.90
17483;DHT22;8858;52.308;20.994;2022-12-05T10:08:56;2.50;99.90
17483;DHT22;8858;52.308;20.994;2022-12-05T10:11:34;2.50;99.90
17483;DHT22;8858;52.308;20.994;2022-12-05T10:14:12;2.50;99.90
17483;DHT22;8858;52.308;20.994;2022-12-05T10:16:48;2.50;99.90
17483;DHT22;8858;52.308;20.994;2022-12-05T10:19:23;2.50;99.90
17483;DHT22;8858;52.308;20.994;2022-12-05T10:21:56;2.50;99.90
17483;DHT22;8858;52.308;20.994;2022-12-05T10:24:31;2.50;99.90
17483;DHT22;8858;52.308;20.994;2022-12-05T10:27:06;2.60;99.90
17483;DHT22;8858;52.308;20.994;2022-12-05T10:29:39;2.60;99.90
17483;DHT22;8858;52.308;20.994;2022-12-05T10:32:22;2.50;99.90
17483;DHT22;8858;52.308;20.994;2022-12-05T10:34:58;2.60;99.90
17483;DHT22;8858;52.308;20.994;2022-12-05T10:37:29;2.60;99.90
17483;DHT22;8858;52.308;20.994;2022-12-05T10:39:58;2.60;99.90
17483;DHT22;8858;52.308;20.994;2022-12-05T10:42:30;2.60;99.90
17483;DHT22;8858;52.308;20.994;2022-12-05T10:45:03;2.60;99.90
17483;DHT22;8858;52.308;20.994;2022-12-05T10:47:32;2.60;99.90
17483;DHT22;8858;52.308;20.994;2022-12-05T10:50:20;2.60;99.90
17483;DHT22;8858;52.308;20.994;2022-12-05T10:52:53;2.60;99.90
17483;DHT22;8858;52.308;20.994;2022-12-05T10:55:30;2.50;99.90
17483;DHT22;8858;52.308;20.994;2022-12-05T10:58:11;2.60;99.90
17483;DHT22;8858;52.308;20.994;2022-12-05T11:00:45;2.50;99.90
17483;DHT22;8858;52.308;20.994;2022-12-05T11:03:23;2.60;99.90
17483;DHT22;8858;52.308;20.994;2022-12-05T11:05:54;2.60;99.90
17483;DHT22;8858;52.308;20.994;2022-12-05T11:08:24;2.60;99.90
17483;DHT22;8858;52.308;20.994;2022-12-05T11:11:18;2.50;99.90
17483;DHT22;8858;52.308;20.994;2022-12-05T11:13:52;2.60;99.90
17483;DHT22;8858;52.308;20.994;2022-12-05T11:16:24;2.60;99.90
17483;DHT22;8858;52.308;20.994;2022-12-05T11:18:54;2.60;99.90
17483;DHT22;8858;52.308;20.994;2022-12-05T11:21:22;2.60;99.90
17483;DHT22;8858;52.308;20.994;2022-12-05T11:23:51;2.60;99.90
17483;DHT22;8858;52.308;20.994;2022-12-05T11:26:32;2.60;99.90
17483;DHT22;8858;52.308;20.994;2022-12-05T11:29:03;2.60;99.90
17483;DHT22;8858;52.308;20.994;2022-12-05T11:31:31;2.60;99.90
17483;DHT22;8858;52.308;20.994;2022-12-05T11:34:02;2.60;99.90
17483;DHT22;8858;52.308;20.994;2022-12-05T11:36:37;2.70;99.90
17483;DHT22;8858;52.308;20.994;2022-12-05T11:39:08;2.60;99.90
17483;DHT22;8858;52.308;20.994;2022-12-05T11:42:01;2.60;99.90
17483;DHT22;8858;52.308;20.994;2022-12-05T11:47:41;2.60;99.90
17483;DHT22;8858;52.308;20.994;2022-12-05T11:50:32;2.60;99.90
17483;DHT22;8858;52.308;20.994;2022-12-05T11:53:22;2.70;99.90
17483;DHT22;8858;52.308;20.994;2022-12-05T11:56:01;2.60;99.90
17483;DHT22;8858;52.308;20.994;2022-12-05T11:58:52;2.60;99.90
17483;DHT22;8858;52.308;20.994;2022-12-05T12:01:37;2.50;99.90
17483;DHT22;8858;52.308;20.994;2022-12-05T12:04:24;2.50;99.90
17483;DHT22;8858;52.308;20.994;2022-12-05T12:07:06;2.50;99.90
17483;DHT22;8858;52.308;20.994;2022-12-05T12:09:44;2.50;99.90
17483;DHT22;8858;52.308;20.994;2022-12-05T12:12:23;2.50;99.90
17483;DHT22;8858;52.308;20.994;2022-12-05T12:15:02;2.50;99.90
17483;DHT22;8858;52.308;20.994;2022-12-05T12:17:46;2.60;99.90
17483;DHT22;8858;52.308;20.994;2022-12-05T12:20:30;2.60;99.90
17483;DHT22;8858;52.308;20.994;2022-12-05T12:23:16;2.60;99.90
17483;DHT22;8858;52.308;20.994;2022-12-05T12:25:55;2.50;99.90
17483;DHT22;8858;52.308;20.994;2022-12-05T12:28:33;2.60;99.90
17483;DHT22;8858;52.308;20.994;2022-12-05T12:31:21;2.60;99.90
17483;DHT22;8858;52.308;20.994;2022-12-05T12:33:59;2.60;99.90
17483;DHT22;8858;52.308;20.994;2022-12-05T12:36:36;2.50;99.90
17483;DHT22;8858;52.308;20.994;2022-12-05T12:39:22;2.60;99.90
17483;DHT22;8858;52.308;20.994;2022-12-05T12:42:00;2.60;99.90
17483;DHT22;8858;52.308;20.994;2022-12-05T12:45:13;2.60;99.90
17483;DHT22;8858;52.308;20.994;2022-12-05T12:47:54;2.60;99.90
17483;DHT22;8858;52.308;20.994;2022-12-05T12:50:30;2.60;99.90
17483;DHT22;8858;52.308;20.994;2022-12-05T12:53:23;2.60;99.90
17483;DHT22;8858;52.308;20.994;2022-12-05T12:55:59;2.60;99.90
17483;DHT22;8858;52.308;20.994;2022-12-05T12:58:43;2.70;99.90
17483;DHT22;8858;52.308;20.994;2022-12-05T13:01:24;2.60;99.90
17483;DHT22;8858;52.308;20.994;2022-12-05T13:03:57;2.60;99.90
17483;DHT22;8858;52.308;20.994;2022-12-05T13:06:36;2.60;99.90
17483;DHT22;8858;52.308;20.994;2022-12-05T13:09:13;2.60;99.90
17483;DHT22;8858;52.308;20.994;2022-12-05T13:11:44;2.60;99.90
17483;DHT22;8858;52.308;20.994;2022-12-05T13:14:15;2.50;99.90
17483;DHT22;8858;52.308;20.994;2022-12-05T13:16:47;2.70;99.90
17483;DHT22;8858;52.308;20.994;2022-12-05T13:19:27;2.70;99.90
17483;DHT22;8858;52.308;20.994;2022-12-05T13:21:57;2.60;99.90
17483;DHT22;8858;52.308;20.994;2022-12-05T13:24:27;2.70;99.90
17483;DHT22;8858;52.308;20.994;2022-12-05T13:26:58;2.70;99.90
17483;DHT22;8858;52.308;20.994;2022-12-05T13:29:32;2.70;99.90
17483;DHT22;8858;52.308;20.994;2022-12-05T13:32:04;2.70;99.90
17483;DHT22;8858;52.308;20.994;2022-12-05T13:34:44;2.70;99.90
17483;DHT22;8858;52.308;20.994;2022-12-05T13:37:20;2.70;99.90
17483;DHT22;8858;52.308;20.994;2022-12-05T13:40:26;2.70;99.90
17483;DHT22;8858;52.308;20.994;2022-12-05T13:43:14;2.70;99.90
17483;DHT22;8858;52.308;20.994;2022-12-05T13:46:00;2.70;99.90
17483;DHT22;8858;52.308;20.994;2022-12-05T13:48:31;2.70;99.90
17483;DHT22;8858;52.308;20.994;2022-12-05T13:51:03;2.70;99.90
17483;DHT22;8858;52.308;20.994;2022-12-05T13:53:40;2.70;99.90
17483;DHT22;8858;52.308;20.994;2022-12-05T13:56:25;2.70;99.90
17483;DHT22;8858;52.308;20.994;2022-12-05T13:58:55;2.70;99.90
17483;DHT22;8858;52.308;20.994;2022-12-05T14:01:47;2.70;99.90
17483;DHT22;8858;52.308;20.994;2022-12-05T14:07:36;2.70;99.90
17483;DHT22;8858;52.308;20.994;2022-12-05T14:10:08;2.70;99.90
17483;DHT22;8858;52.308;20.994;2022-12-05T14:12:46;2.70;99.90
17483;DHT22;8858;52.308;20.994;2022-12-05T14:15:32;2.70;99.90
17483;DHT22;8858;52.308;20.994;2022-12-05T14:18:05;2.70;99.90
17483;DHT22;8858;52.308;20.994;2022-12-05T14:20:54;2.70;99.90
17483;DHT22;8858;52.308;20.994;2022-12-05T14:23:54;2.70;99.90
17483;DHT22;8858;52.308;20.994;2022-12-05T14:26:42;2.70;99.90
17483;DHT22;8858;52.308;20.994;2022-12-05T14:29:35;2.70;99.90
17483;DHT22;8858;52.308;20.994;2022-12-05T14:32:12;2.70;99.90
17483;DHT22;8858;52.308;20.994;2022-12-05T14:34:55;2.70;99.90
17483;DHT22;8858;52.308;20.994;2022-12-05T14:37:27;2.70;99.90
17483;DHT22;8858;52.308;20.994;2022-12-05T14:39:58;2.70;99.90
17483;DHT22;8858;52.308;20.994;2022-12-05T14:42:36;2.70;99.90
17483;DHT22;8858;52.308;20.994;2022-12-05T14:45:22;2.70;99.90
17483;DHT22;8858;52.308;20.994;2022-12-05T14:47:56;2.70;99.90
17483;DHT22;8858;52.308;20.994;2022-12-05T14:50:42;2.70;99.90
17483;DHT22;8858;52.308;20.994;2022-12-05T14:53:20;2.60;99.90
17483;DHT22;8858;52.308;20.994;2022-12-05T14:55:52;2.70;99.90
17483;DHT22;8858;52.308;20.994;2022-12-05T14:58:33;2.70;99.90
17483;DHT22;8858;52.308;20.994;2022-12-05T15:01:12;2.70;99.90
17483;DHT22;8858;52.308;20.994;2022-12-05T15:03:46;2.70;99.90
17483;DHT22;8858;52.308;20.994;2022-12-05T15:06:19;2.70;99.90
17483;DHT22;8858;52.308;20.994;2022-12-05T15:08:50;2.70;99.90
17483;DHT22;8858;52.308;20.994;2022-12-05T15:11:44;2.70;99.90
17483;DHT22;8858;52.308;20.994;2022-12-05T15:14:17;2.70;99.90
17483;DHT22;8858;52.308;20.994;2022-12-05T15:16:49;2.70;99.90
17483;DHT22;8858;52.308;20.994;2022-12-05T15:19:22;2.70;99.90
17483;DHT22;8858;52.308;20.994;2022-12-05T15:21:57;2.70;99.90
17483;DHT22;8858;52.308;20.994;2022-12-05T15:24:36;2.60;99.90
17483;DHT22;8858;52.308;20.994;2022-12-05T15:27:07;2.60;99.90
17483;DHT22;8858;52.308;20.994;2022-12-05T15:29:39;2.60;99.90
17483;DHT22;8858;52.308;20.994;2022-12-05T15:32:15;2.60;99.90
17483;DHT22;8858;52.308;20.994;2022-12-05T15:34:49;2.70;99.90
17483;DHT22;8858;52.308;20.994;2022-12-05T15:37:22;2.70;99.90
17483;DHT22;8858;52.308;20.994;2022-12-05T15:39:53;2.70;99.90
17483;DHT22;8858;52.308;20.994;2022-12-05T15:42:23;2.60;99.90
17483;DHT22;8858;52.308;20.994;2022-12-05T15:45:20;2.60;99.90
17483;DHT22;8858;52.308;20.994;2022-12-05T15:47:50;2.60;99.90
17483;DHT22;8858;52.308;20.994;2022-12-05T15:50:25;2.60;99.90
17483;DHT22;8858;52.308;20.994;2022-12-05T15:52:58;2.60;99.90
17483;DHT22;8858;52.308;20.994;2022-12-05T15:55:32;2.70;99.90
17483;DHT22;8858;52.308;20.994;2022-12-05T15:58:07;2.70;99.90
17483;DHT22;8858;52.308;20.994;2022-12-05T16:00:44;2.70;99.90
17483;DHT22;8858;52.308;20.994;2022-12-05T16:03:17;2.70;99.90
17483;DHT22;8858;52.308;20.994;2022-12-05T16:05:50;2.70;99.90
17483;DHT22;8858;52.308;20.994;2022-12-05T16:08:21;2.70;99.90
17483;DHT22;8858;52.308;20.994;2022-12-05T16:10:56;2.70;99.90
17483;DHT22;8858;52.308;20.994;2022-12-05T16:13:29;2.80;99.90
17483;DHT22;8858;52.308;20.994;2022-12-05T16:16:04;2.70;99.90
17483;DHT22;8858;52.308;20.994;2022-12-05T16:18:35;2.70;99.90
17483;DHT22;8858;52.308;20.994;2022-12-05T16:21:28;2.70;99.90
17483;DHT22;8858;52.308;20.994;2022-12-05T16:24:07;2.70;99.90
17483;DHT22;8858;52.308;20.994;2022-12-05T16:26:39;2.70;99.90
17483;DHT22;8858;52.308;20.994;2022-12-05T16:29:25;2.70;99.90
17483;DHT22;8858;52.308;20.994;2022-12-05T16:31:57;2.70;99.90
17483;DHT22;8858;52.308;20.994;2022-12-05T16:34:27;2.70;99.90
17483;DHT22;8858;52.308;20.994;2022-12-05T16:36:57;2.80;99.90